createdAt,value
2022-11-29T00:02:45.658Z,25.83
2022-11-29T00:05:35.092Z,26.55
2022-11-29T00:08:22.643Z,26.83
2022-11-29T00:11:11.460Z,26.80
2022-11-29T00:14:01.602Z,24.27
2022-11-29T00:16:52.068Z,25.60
2022-11-29T00:19:40.823Z,24.33
2022-11-29T00:22:28.475Z,25.23
2022-11-29T00:25:15.404Z,25.08
2022-11-29T00:28:02.711Z,25.50
2022-11-29T00:30:50.388Z,26.55
2022-11-29T00:33:37.479Z,28.48
2022-11-29T00:36:25.792Z,26.75
2022-11-29T00:39:13.435Z,24.48
2022-11-29T00:42:00.619Z,26.38
2022-11-29T00:44:47.900Z,28.05
2022-11-29T00:47:34.927Z,25.55
2022-11-29T00:50:21.808Z,25.70
2022-11-29T00:53:10.278Z,24.58
2022-11-29T00:55:57.202Z,24.48
2022-11-29T00:58:44.503Z,25.70
2022-11-29T01:01:31.672Z,25.55
2022-11-29T01:04:18.396Z,26.27
2022-11-29T01:07:05.485Z,26.05
2022-11-29T01:09:54.052Z,26.02
2022-11-29T01:12:41.466Z,26.05
2022-11-29T01:15:28.852Z,24.73
2022-11-29T01:18:15.861Z,25.02
2022-11-29T01:21:04.490Z,27.45
2022-11-29T01:23:52.860Z,24.90
2022-11-29T01:26:41.298Z,24.92
2022-11-29T01:29:28.180Z,25.65
2022-11-29T01:32:18.100Z,25.42
2022-11-29T01:35:05.690Z,25.38
2022-11-29T01:37:52.915Z,25.08
2022-11-29T01:40:40.026Z,26.10
2022-11-29T01:43:28.628Z,25.08
2022-11-29T01:46:15.630Z,24.98
2022-11-29T01:49:06.566Z,23.98
2022-11-29T01:51:56.841Z,23.75
2022-11-29T01:54:47.876Z,24.40
2022-11-29T01:57:36.668Z,22.67
2022-11-29T02:00:25.082Z,24.65
2022-11-29T02:03:13.555Z,23.60
2022-11-29T02:06:01.935Z,22.48
2022-11-29T02:08:48.739Z,24.52
2022-11-29T02:12:08.771Z,21.70
2022-11-29T02:15:15.722Z,22.20
2022-11-29T02:21:19.903Z,22.48
2022-11-29T02:24:33.766Z,21.73
2022-11-29T02:28:11.625Z,21.75
2022-11-29T02:31:36.655Z,22.80
2022-11-29T02:34:46.993Z,22.75
2022-11-29T02:38:02.903Z,23.00
2022-11-29T02:41:02.201Z,21.75
2022-11-29T02:44:33.517Z,20.98
2022-11-29T02:47:29.581Z,21.60
2022-11-29T02:50:35.745Z,20.98
2022-11-29T02:53:33.311Z,21.42
2022-11-29T02:56:28.281Z,19.75
2022-11-29T02:59:26.007Z,20.45
2022-11-29T03:02:22.448Z,21.13
2022-11-29T03:05:17.689Z,20.90
2022-11-29T03:08:13.216Z,21.95
2022-11-29T03:11:08.183Z,20.63
2022-11-29T03:14:10.094Z,21.05
2022-11-29T03:17:05.690Z,20.70
2022-11-29T03:20:08.200Z,19.65
2022-11-29T03:23:16.196Z,20.75
2022-11-29T03:26:08.656Z,19.83
2022-11-29T03:29:01.327Z,20.55
2022-11-29T03:31:57.252Z,19.30
2022-11-29T03:34:57.699Z,20.50
2022-11-29T03:37:54.014Z,21.02
2022-11-29T03:40:49.197Z,21.17
2022-11-29T03:43:43.871Z,19.13
2022-11-29T03:46:37.647Z,20.90
2022-11-29T03:49:29.823Z,19.98
2022-11-29T03:52:21.210Z,20.83
2022-11-29T03:55:24.877Z,22.05
2022-11-29T03:58:33.344Z,20.27
2022-11-29T04:01:49.728Z,20.35
2022-11-29T04:05:22.155Z,19.67
2022-11-29T04:08:37.283Z,21.77
2022-11-29T04:11:58.866Z,22.17
2022-11-29T04:15:16.139Z,21.77
2022-11-29T04:18:38.489Z,21.17
2022-11-29T04:21:59.534Z,20.48
2022-11-29T04:25:16.344Z,21.95
2022-11-29T04:28:44.994Z,19.45
2022-11-29T04:31:42.052Z,20.42
2022-11-29T04:34:54.106Z,20.17
2022-11-29T04:38:22.444Z,21.38
2022-11-29T04:41:33.224Z,22.45
2022-11-29T04:44:40.853Z,22.83
2022-11-29T04:47:52.241Z,22.20
2022-11-29T04:50:49.277Z,21.17
2022-11-29T04:53:54.572Z,21.67
2022-11-29T04:56:44.813Z,21.38
2022-11-29T04:59:40.825Z,21.02
2022-11-29T05:02:37.982Z,21.30
2022-11-29T05:05:36.043Z,22.05
2022-11-29T05:08:34.452Z,22.60
2022-11-29T05:11:30.862Z,20.63
2022-11-29T05:14:28.115Z,20.92
2022-11-29T05:17:41.706Z,20.77
2022-11-29T05:20:40.078Z,23.20
2022-11-29T05:23:38.916Z,22.17
2022-11-29T05:26:30.720Z,21.63
2022-11-29T05:29:23.452Z,22.20
2022-11-29T05:32:28.782Z,19.88
2022-11-29T05:35:40.882Z,22.17
2022-11-29T05:38:50.345Z,21.35
2022-11-29T05:42:04.867Z,22.13
2022-11-29T05:44:58.121Z,21.63
2022-11-29T05:47:53.771Z,22.02
2022-11-29T05:50:47.471Z,22.20
2022-11-29T05:53:44.366Z,22.05
2022-11-29T05:56:43.955Z,21.88
2022-11-29T05:59:32.142Z,23.23
2022-11-29T06:02:32.237Z,21.20
2022-11-29T06:05:27.170Z,22.38
2022-11-29T06:08:24.716Z,22.60
2022-11-29T06:11:17.251Z,23.13
2022-11-29T06:14:09.746Z,22.17
2022-11-29T06:17:12.915Z,23.27
2022-11-29T06:20:11.109Z,23.17
2022-11-29T06:23:29.106Z,21.52
2022-11-29T06:26:30.543Z,23.02
2022-11-29T06:29:34.463Z,21.35
2022-11-29T06:32:30.657Z,22.65
2022-11-29T06:35:35.017Z,23.42
2022-11-29T06:38:27.262Z,23.13
2022-11-29T06:41:19.152Z,22.63
2022-11-29T06:44:07.062Z,24.10
2022-11-29T06:47:01.838Z,22.00
2022-11-29T06:49:52.892Z,22.70
2022-11-29T06:52:48.237Z,23.67
2022-11-29T06:55:43.913Z,25.10
2022-11-29T06:58:41.342Z,25.08
2022-11-29T07:01:39.900Z,24.88
2022-11-29T07:04:49.862Z,24.35
2022-11-29T07:07:37.715Z,22.38
2022-11-29T07:10:25.815Z,22.77
2022-11-29T07:13:15.086Z,22.67
2022-11-29T07:16:09.098Z,22.90
2022-11-29T07:19:10.303Z,23.95
2022-11-29T07:22:05.038Z,21.25
2022-11-29T07:25:01.734Z,23.80
2022-11-29T07:27:57.645Z,24.98
2022-11-29T07:30:53.046Z,25.13
2022-11-29T07:33:54.088Z,25.05
2022-11-29T07:36:50.801Z,24.35
2022-11-29T07:39:46.161Z,25.10
2022-11-29T07:42:42.326Z,25.63
2022-11-29T07:45:31.933Z,24.30
2022-11-29T07:48:20.321Z,24.23
2022-11-29T07:51:07.404Z,24.50
2022-11-29T07:53:54.546Z,25.52
2022-11-29T07:56:41.760Z,24.88
2022-11-29T07:59:28.924Z,24.60
2022-11-29T08:02:16.250Z,22.67
2022-11-29T08:05:05.444Z,23.63
2022-11-29T08:07:53.589Z,22.15
2022-11-29T08:10:40.478Z,24.05
2022-11-29T08:13:27.267Z,25.38
2022-11-29T08:16:18.651Z,24.80
2022-11-29T08:19:06.011Z,24.58
2022-11-29T08:21:54.538Z,23.85
2022-11-29T08:24:41.406Z,23.92
2022-11-29T08:27:28.886Z,24.42
2022-11-29T08:30:18.703Z,24.92
2022-11-29T08:33:07.151Z,23.90
2022-11-29T08:35:54.038Z,23.92
2022-11-29T08:38:42.711Z,23.55
2022-11-29T08:41:30.069Z,24.52
2022-11-29T08:44:17.554Z,24.88
2022-11-29T08:47:21.940Z,23.98
2022-11-29T08:50:12.424Z,23.48
2022-11-29T08:53:17.615Z,23.88
2022-11-29T08:56:31.751Z,23.45
2022-11-29T08:59:13.654Z,23.63
2022-11-29T09:02:00.732Z,24.98
2022-11-29T09:04:47.805Z,23.80
2022-11-29T09:07:35.020Z,23.33
2022-11-29T09:10:22.156Z,23.80
2022-11-29T09:13:11.729Z,25.45
2022-11-29T09:15:58.721Z,22.67
2022-11-29T09:18:51.368Z,24.52
2022-11-29T09:21:38.665Z,23.50
2022-11-29T09:24:25.939Z,23.58
2022-11-29T09:27:13.017Z,21.80
2022-11-29T09:30:01.542Z,24.60
2022-11-29T09:32:48.567Z,24.27
2022-11-29T09:35:35.823Z,23.88
2022-11-29T09:38:22.942Z,23.67
2022-11-29T09:41:29.192Z,23.70
2022-11-29T09:44:22.564Z,22.17
2022-11-29T09:47:29.293Z,22.63
2022-11-29T09:50:27.093Z,24.55
2022-11-29T09:53:29.814Z,23.75
2022-11-29T09:56:23.569Z,23.98
2022-11-29T09:59:15.557Z,22.30
2022-11-29T10:02:10.126Z,22.42
2022-11-29T10:05:04.117Z,22.92
2022-11-29T10:07:57.775Z,24.27
2022-11-29T10:10:47.534Z,24.85
2022-11-29T10:13:36.710Z,23.05
2022-11-29T10:16:29.656Z,24.23
2022-11-29T10:19:22.522Z,25.52
2022-11-29T10:22:19.125Z,23.23
2022-11-29T10:25:10.426Z,23.30
2022-11-29T10:27:58.048Z,23.40
2022-11-29T10:30:45.256Z,23.95
2022-11-29T10:33:36.271Z,23.02
2022-11-29T10:36:28.798Z,23.35
2022-11-29T10:39:22.864Z,22.80
2022-11-29T10:42:36.736Z,23.08
2022-11-29T10:45:29.821Z,23.80
2022-11-29T10:48:18.695Z,22.88
2022-11-29T10:51:15.637Z,22.85
2022-11-29T10:54:19.562Z,22.50
2022-11-29T10:57:14.471Z,25.42
2022-11-29T11:00:04.380Z,23.27
2022-11-29T11:02:51.656Z,24.48
2022-11-29T11:05:38.890Z,23.75
2022-11-29T11:08:27.098Z,24.75
2022-11-29T11:11:16.118Z,23.33
2022-11-29T11:14:06.074Z,22.90
2022-11-29T11:16:54.120Z,24.10
2022-11-29T11:19:40.843Z,23.23
2022-11-29T11:22:28.860Z,23.55
2022-11-29T11:25:28.387Z,22.98
2022-11-29T11:28:22.355Z,23.70
2022-11-29T11:31:11.921Z,23.27
2022-11-29T11:33:58.947Z,22.20
2022-11-29T11:36:46.205Z,23.65
2022-11-29T11:39:33.391Z,20.08
2022-11-29T11:42:40.573Z,22.88
2022-11-29T11:45:34.034Z,23.60
2022-11-29T11:48:21.712Z,24.23
2022-11-29T11:51:21.789Z,24.08
2022-11-29T11:54:15.789Z,22.48
2022-11-29T11:57:02.824Z,22.25
2022-11-29T11:59:51.283Z,21.58
2022-11-29T12:02:41.680Z,24.35
2022-11-29T12:05:28.750Z,22.98
2022-11-29T12:08:17.071Z,21.92
2022-11-29T12:11:08.607Z,22.48
2022-11-29T12:14:00.276Z,23.73
2022-11-29T12:16:50.024Z,21.77
2022-11-29T12:19:48.099Z,21.83
2022-11-29T12:22:45.243Z,23.25
2022-11-29T12:25:42.963Z,23.52
2022-11-29T12:28:32.991Z,23.20
2022-11-29T12:31:39.336Z,23.63
2022-11-29T12:34:51.463Z,21.80
2022-11-29T12:37:44.354Z,24.10
2022-11-29T12:40:39.447Z,22.13
2022-11-29T12:43:48.451Z,22.60
2022-11-29T12:46:35.985Z,22.05
2022-11-29T12:49:29.528Z,24.38
2022-11-29T12:52:26.772Z,21.70
2022-11-29T12:55:23.801Z,22.27
2022-11-29T12:58:18.944Z,21.27
2022-11-29T13:01:16.647Z,23.45
2022-11-29T13:04:17.103Z,23.38
2022-11-29T13:07:12.443Z,22.65
2022-11-29T13:10:20.111Z,24.80
2022-11-29T13:13:20.639Z,26.02
2022-11-29T13:16:20.637Z,23.60
2022-11-29T13:19:14.844Z,21.55
2022-11-29T13:22:11.877Z,21.23
2022-11-29T13:25:02.655Z,23.27
2022-11-29T13:27:59.415Z,26.73
2022-11-29T13:30:46.916Z,25.88
2022-11-29T13:33:41.314Z,24.05
2022-11-29T13:36:41.084Z,23.10
2022-11-29T13:39:37.426Z,25.23
2022-11-29T13:42:34.997Z,25.58
2022-11-29T13:45:27.800Z,24.45
2022-11-29T13:48:37.132Z,27.55
2022-11-29T13:51:30.423Z,26.15
2022-11-29T13:54:29.503Z,27.30
2022-11-29T13:57:16.639Z,25.88
2022-11-29T14:00:03.963Z,27.60
2022-11-29T14:02:52.486Z,26.52
2022-11-29T14:05:41.384Z,25.90
2022-11-29T14:08:47.676Z,26.73
2022-11-29T14:11:46.756Z,25.63
2022-11-29T14:14:41.641Z,27.55
2022-11-29T14:17:50.143Z,26.90
2022-11-29T14:20:55.153Z,27.05
2022-11-29T14:23:43.152Z,28.98
2022-11-29T14:26:33.145Z,27.88
2022-11-29T14:29:54.012Z,28.73
2022-11-29T14:32:50.535Z,26.55
2022-11-29T14:38:36.170Z,27.85
2022-11-29T14:41:32.106Z,29.20
2022-11-29T14:44:21.849Z,28.77
2022-11-29T14:47:16.749Z,27.70
2022-11-29T14:50:07.524Z,29.27
2022-11-29T14:52:54.822Z,27.60
2022-11-29T14:55:43.403Z,30.13
2022-11-29T14:58:30.502Z,30.48
2022-11-29T15:01:24.927Z,32.55
2022-11-29T15:04:12.661Z,29.00
2022-11-29T15:07:01.289Z,29.55
2022-11-29T15:09:51.635Z,29.77
2022-11-29T15:12:41.757Z,29.58
2022-11-29T15:15:43.422Z,30.20
2022-11-29T15:19:12.272Z,27.88
2022-11-29T15:22:08.274Z,27.63
2022-11-29T15:24:58.050Z,29.00
2022-11-29T15:27:53.589Z,30.27
2022-11-29T15:30:42.527Z,29.35
2022-11-29T15:33:30.408Z,30.65
2022-11-29T15:36:20.042Z,30.60
2022-11-29T15:39:07.019Z,31.25
2022-11-29T15:41:54.171Z,30.33
2022-11-29T15:44:48.448Z,30.30
2022-11-29T15:47:35.607Z,32.17
2022-11-29T15:50:27.004Z,30.67
2022-11-29T15:53:20.618Z,30.02
2022-11-29T15:56:16.202Z,32.45
2022-11-29T15:59:09.176Z,30.03
2022-11-29T16:01:59.014Z,33.95
2022-11-29T16:04:47.764Z,30.48
2022-11-29T16:07:35.082Z,31.38
2022-11-29T16:10:25.880Z,30.10
2022-11-29T16:13:33.368Z,31.17
2022-11-29T16:16:22.676Z,32.13
2022-11-29T16:19:19.223Z,31.13
2022-11-29T16:25:07.127Z,32.60
2022-11-29T16:27:55.179Z,33.03
2022-11-29T16:30:43.193Z,32.63
2022-11-29T16:33:30.555Z,28.83
2022-11-29T16:36:21.717Z,32.17
2022-11-29T16:39:19.278Z,30.90
2022-11-29T16:42:09.491Z,31.50
2022-11-29T16:45:07.581Z,28.40
2022-11-29T16:47:59.185Z,32.83
2022-11-29T16:50:46.502Z,33.30
2022-11-29T16:53:37.100Z,30.55
2022-11-29T16:56:26.361Z,30.65
2022-11-29T16:59:25.347Z,30.30
2022-11-29T17:02:16.262Z,30.15
2022-11-29T17:05:03.239Z,29.45
2022-11-29T17:07:50.376Z,31.70
2022-11-29T17:10:38.636Z,30.33
2022-11-29T17:13:25.554Z,31.83
2022-11-29T17:16:15.174Z,31.77
2022-11-29T17:19:02.424Z,30.15
2022-11-29T17:21:50.690Z,31.67
2022-11-29T17:24:43.381Z,29.90
2022-11-29T17:27:35.014Z,31.08
2022-11-29T17:30:22.080Z,32.25
2022-11-29T17:33:09.366Z,32.28
2022-11-29T17:35:56.501Z,32.78
2022-11-29T17:38:44.197Z,30.55
2022-11-29T17:41:32.732Z,30.55
2022-11-29T17:44:21.299Z,32.25
2022-11-29T17:47:07.973Z,31.92
2022-11-29T17:49:55.061Z,32.40
2022-11-29T17:52:42.571Z,32.13
2022-11-29T17:55:29.873Z,32.03
2022-11-29T17:58:16.786Z,34.47
2022-11-29T18:01:07.461Z,36.55
2022-11-29T18:03:55.874Z,37.05
2022-11-29T18:06:43.527Z,44.10
2022-11-29T18:09:30.537Z,58.65
2022-11-29T18:12:17.832Z,42.47
2022-11-29T18:15:04.767Z,39.47
2022-11-29T18:17:53.289Z,36.42
2022-11-29T18:20:40.740Z,33.38
2022-11-29T18:23:29.203Z,33.70
2022-11-29T18:26:18.838Z,34.88
2022-11-29T18:29:06.808Z,35.95
2022-11-29T18:31:53.649Z,36.25
2022-11-29T18:34:41.838Z,40.30
2022-11-29T18:38:05.039Z,40.35
2022-11-29T18:40:38.985Z,36.53
2022-11-29T18:43:25.938Z,35.83
2022-11-29T18:46:14.757Z,34.63
2022-11-29T18:49:05.847Z,33.85
2022-11-29T18:51:54.614Z,36.03
2022-11-29T18:54:41.779Z,36.72
2022-11-29T18:57:28.882Z,35.50
2022-11-29T19:00:17.112Z,35.20
2022-11-29T19:03:04.258Z,36.20
2022-11-29T19:05:52.552Z,33.13
2022-11-29T19:08:41.042Z,33.30
2022-11-29T19:11:29.673Z,33.55
2022-11-29T19:14:16.552Z,37.83
2022-11-29T19:17:03.682Z,33.25
2022-11-29T19:19:50.818Z,32.22
2022-11-29T19:22:38.061Z,34.60
2022-11-29T19:25:26.770Z,32.45
2022-11-29T19:28:14.584Z,32.55
2022-11-29T19:31:01.732Z,33.58
2022-11-29T19:33:48.935Z,35.03
2022-11-29T19:36:37.413Z,32.50
2022-11-29T19:39:24.359Z,35.72
2022-11-29T19:42:12.929Z,34.03
2022-11-29T19:45:17.477Z,34.85
2022-11-29T19:48:05.204Z,35.70
2022-11-29T19:50:52.356Z,37.72
2022-11-29T19:53:39.616Z,36.67
2022-11-29T19:56:27.077Z,40.17
2022-11-29T19:59:15.413Z,36.75
2022-11-29T20:02:02.103Z,36.10
2022-11-29T20:04:49.784Z,38.78
2022-11-29T20:07:36.807Z,38.83
2022-11-29T20:10:23.780Z,36.28
2022-11-29T20:13:10.901Z,39.85
2022-11-29T20:16:04.157Z,35.13
2022-11-29T20:18:53.070Z,38.80
2022-11-29T20:21:44.524Z,37.60
2022-11-29T20:24:36.623Z,37.03
2022-11-29T20:27:26.086Z,38.50
2022-11-29T20:30:14.874Z,39.63
2022-11-29T20:33:03.493Z,39.78
2022-11-29T20:35:54.043Z,37.50
2022-11-29T20:38:49.466Z,37.95
2022-11-29T20:41:44.434Z,38.80
2022-11-29T20:44:38.204Z,39.88
2022-11-29T20:47:26.630Z,36.33
2022-11-29T20:50:23.107Z,36.70
2022-11-29T20:53:27.633Z,37.20
2022-11-29T20:56:15.889Z,35.63
2022-11-29T20:59:02.775Z,35.83
2022-11-29T21:01:50.035Z,35.70
2022-11-29T21:04:37.133Z,35.42
2022-11-29T21:07:25.719Z,38.70
2022-11-29T21:10:14.993Z,38.10
2022-11-29T21:13:02.156Z,36.90
2022-11-29T21:15:50.203Z,36.78
2022-11-29T21:18:37.478Z,35.53
2022-11-29T21:21:28.649Z,36.53
2022-11-29T21:24:29.991Z,35.60
2022-11-29T21:27:23.645Z,36.35
2022-11-29T21:30:17.899Z,37.97
2022-11-29T21:33:05.418Z,39.67
2022-11-29T21:35:55.730Z,36.78
2022-11-29T21:38:43.167Z,37.83
2022-11-29T21:41:31.353Z,37.25
2022-11-29T21:44:18.160Z,34.35
2022-11-29T21:47:05.526Z,36.72
2022-11-29T21:49:52.850Z,36.08
2022-11-29T21:52:39.800Z,37.42
2022-11-29T21:55:31.752Z,38.85
2022-11-29T21:58:20.763Z,37.50
2022-11-29T22:01:09.512Z,36.15
2022-11-29T22:03:57.244Z,35.90
2022-11-29T22:06:44.366Z,34.63
2022-11-29T22:09:31.673Z,36.70
2022-11-29T22:12:33.697Z,37.17
2022-11-29T22:15:25.006Z,36.97
2022-11-29T22:18:12.552Z,35.55
2022-11-29T22:21:03.743Z,37.28
2022-11-29T22:23:52.788Z,34.67
2022-11-29T22:26:43.736Z,37.17
2022-11-29T22:29:31.059Z,37.40
2022-11-29T22:32:19.778Z,37.45
2022-11-29T22:35:07.380Z,36.00
2022-11-29T22:37:54.608Z,35.88
2022-11-29T22:40:41.760Z,37.88
2022-11-29T22:43:29.003Z,36.65
2022-11-29T22:46:18.113Z,35.22
2022-11-29T22:49:06.488Z,35.10
2022-11-29T22:51:53.665Z,36.17
2022-11-29T22:54:40.589Z,39.33
2022-11-29T22:57:27.676Z,37.55
2022-11-29T23:00:15.673Z,39.03
2022-11-29T23:03:02.611Z,36.75
2022-11-29T23:05:51.224Z,37.85
2022-11-29T23:08:38.979Z,37.72
2022-11-29T23:11:28.199Z,36.85
2022-11-29T23:14:15.003Z,37.60
2022-11-29T23:17:01.935Z,38.22
2022-11-29T23:19:49.099Z,35.05
2022-11-29T23:22:39.391Z,36.60
2022-11-29T23:25:26.387Z,35.97
2022-11-29T23:28:13.435Z,37.35
2022-11-29T23:31:01.376Z,34.65
2022-11-29T23:33:48.674Z,36.58
2022-11-29T23:36:35.715Z,36.83
2022-11-29T23:39:25.459Z,35.63
2022-11-29T23:42:12.505Z,36.35
2022-11-29T23:44:59.924Z,40.03
2022-11-29T23:47:47.080Z,36.85
2022-11-29T23:50:33.828Z,37.05
2022-11-29T23:53:21.160Z,35.72
2022-11-29T23:56:13.152Z,35.88
2022-11-29T23:59:00.260Z,37.47
